createdAt,value
2022-12-18T00:00:40.216Z,22.27
2022-12-18T00:03:08.139Z,22.27
2022-12-18T00:05:35.260Z,22.37
2022-12-18T00:08:01.765Z,22.34
2022-12-18T00:10:28.424Z,22.22
2022-12-18T00:12:54.878Z,22.35
2022-12-18T00:15:21.209Z,22.29
2022-12-18T00:17:47.611Z,22.22
2022-12-18T00:20:15.296Z,22.41
2022-12-18T00:22:41.632Z,22.28
2022-12-18T00:25:08.261Z,22.28
2022-12-18T00:27:34.595Z,22.23
2022-12-18T00:30:00.880Z,22.22
2022-12-18T00:32:27.208Z,22.23
2022-12-18T00:34:53.519Z,22.33
2022-12-18T00:37:21.110Z,22.26
2022-12-18T00:39:48.968Z,22.26
2022-12-18T00:42:15.259Z,22.19
2022-12-18T00:44:41.671Z,22.04
2022-12-18T00:47:08.026Z,22.35
2022-12-18T00:49:34.428Z,22.26
2022-12-18T00:52:00.778Z,22.30
2022-12-18T00:54:28.376Z,22.26
2022-12-18T00:56:54.685Z,22.22
2022-12-18T00:59:21.042Z,22.20
2022-12-18T01:01:47.855Z,22.33
2022-12-18T01:04:14.522Z,22.30
2022-12-18T01:06:40.957Z,22.29
2022-12-18T01:09:07.270Z,22.32
2022-12-18T01:11:34.882Z,22.30
2022-12-18T01:14:01.177Z,22.40
2022-12-18T01:16:27.768Z,22.29
2022-12-18T01:18:54.658Z,22.43
2022-12-18T01:21:21.392Z,22.42
2022-12-18T01:23:47.806Z,22.42
2022-12-18T01:26:15.120Z,22.29
2022-12-18T01:28:43.295Z,22.33
2022-12-18T01:31:10.357Z,22.34
2022-12-18T01:33:36.968Z,22.37
2022-12-18T01:36:03.618Z,22.35
2022-12-18T01:38:30.004Z,22.30
2022-12-18T01:40:57.853Z,22.25
2022-12-18T01:43:39.347Z,22.28
2022-12-18T01:46:07.232Z,22.23
2022-12-18T01:48:33.711Z,22.14
2022-12-18T01:51:00.746Z,22.33
2022-12-18T01:53:27.078Z,22.36
2022-12-18T01:55:54.690Z,22.24
2022-12-18T01:58:22.988Z,22.37
2022-12-18T02:00:49.417Z,22.40
2022-12-18T02:03:17.122Z,22.24
2022-12-18T02:05:45.735Z,22.30
2022-12-18T02:08:16.050Z,22.37
2022-12-18T02:10:48.281Z,22.34
2022-12-18T02:13:20.375Z,22.35
2022-12-18T02:15:51.898Z,22.47
2022-12-18T02:18:20.792Z,22.33
2022-12-18T02:20:48.921Z,22.35
2022-12-18T02:23:24.922Z,22.35
2022-12-18T02:26:03.246Z,22.38
2022-12-18T02:28:32.049Z,22.29
2022-12-18T02:31:00.590Z,22.33
2022-12-18T02:33:28.263Z,22.47
2022-12-18T02:35:55.621Z,22.44
2022-12-18T02:38:21.973Z,22.56
2022-12-18T02:40:49.745Z,22.36
2022-12-18T02:43:17.395Z,22.47
2022-12-18T02:45:48.116Z,22.54
2022-12-18T02:48:14.812Z,22.46
2022-12-18T02:50:46.130Z,22.40
2022-12-18T02:53:18.593Z,22.38
2022-12-18T02:55:53.095Z,22.28
2022-12-18T02:58:24.562Z,22.56
2022-12-18T03:00:54.549Z,22.47
2022-12-18T03:03:25.125Z,22.40
2022-12-18T03:05:53.423Z,22.41
2022-12-18T03:08:21.865Z,22.49
2022-12-18T03:10:50.606Z,22.51
2022-12-18T03:13:21.328Z,22.61
2022-12-18T03:15:50.263Z,22.60
2022-12-18T03:18:18.350Z,22.64
2022-12-18T03:20:45.413Z,22.59
2022-12-18T03:23:13.249Z,22.61
2022-12-18T03:25:40.908Z,22.64
2022-12-18T03:28:09.128Z,22.47
2022-12-18T03:30:39.049Z,22.55
2022-12-18T03:33:09.893Z,22.63
2022-12-18T03:35:38.341Z,22.67
2022-12-18T03:38:04.796Z,22.55
2022-12-18T03:40:36.259Z,22.52
2022-12-18T03:43:07.167Z,22.67
2022-12-18T03:45:35.716Z,22.69
2022-12-18T03:48:05.122Z,22.54
2022-12-18T03:50:38.107Z,22.64
2022-12-18T03:53:11.292Z,22.45
2022-12-18T03:55:38.761Z,22.56
2022-12-18T03:58:06.745Z,22.74
2022-12-18T04:00:34.490Z,22.63
2022-12-18T04:03:01.658Z,22.71
2022-12-18T04:05:29.090Z,22.71
2022-12-18T04:07:57.082Z,22.63
2022-12-18T04:10:23.716Z,22.63
2022-12-18T04:12:50.025Z,22.71
2022-12-18T04:15:16.488Z,22.74
2022-12-18T04:17:47.506Z,22.61
2022-12-18T04:20:13.832Z,22.69
2022-12-18T04:22:40.210Z,22.69
2022-12-18T04:25:09.188Z,22.78
2022-12-18T04:27:35.578Z,22.74
2022-12-18T04:30:02.060Z,22.77
2022-12-18T04:32:28.352Z,22.83
2022-12-18T04:34:54.715Z,22.84
2022-12-18T04:37:20.984Z,22.72
2022-12-18T04:39:47.459Z,22.72
2022-12-18T04:42:15.056Z,22.77
2022-12-18T04:44:41.328Z,22.77
2022-12-18T04:47:07.590Z,22.85
2022-12-18T04:49:34.124Z,22.64
2022-12-18T04:52:00.424Z,22.75
2022-12-18T04:54:26.703Z,22.84
2022-12-18T04:56:53.015Z,22.91
2022-12-18T04:59:21.307Z,22.79
2022-12-18T05:01:47.827Z,22.84
2022-12-18T05:04:14.341Z,22.93
2022-12-18T05:06:40.655Z,22.86
2022-12-18T05:09:07.043Z,22.98
2022-12-18T05:11:33.425Z,22.85
2022-12-18T05:13:59.787Z,22.92
2022-12-18T05:16:27.439Z,22.92
2022-12-18T05:18:53.812Z,22.98
2022-12-18T05:21:20.276Z,23.25
2022-12-18T05:23:46.612Z,22.97
2022-12-18T05:26:15.757Z,23.05
2022-12-18T05:28:42.040Z,22.99
2022-12-18T05:31:08.353Z,22.93
2022-12-18T05:33:36.467Z,22.95
2022-12-18T05:36:04.327Z,23.04
2022-12-18T05:38:31.161Z,22.95
2022-12-18T05:40:57.846Z,23.05
2022-12-18T05:43:24.629Z,23.09
2022-12-18T05:45:51.335Z,23.03
2022-12-18T05:48:18.023Z,23.15
2022-12-18T05:50:46.582Z,23.15
2022-12-18T05:53:13.626Z,23.07
2022-12-18T05:55:40.640Z,23.12
2022-12-18T05:58:07.921Z,23.26
2022-12-18T06:00:35.829Z,23.23
2022-12-18T06:03:02.266Z,23.07
2022-12-18T06:05:29.062Z,23.18
2022-12-18T06:07:56.625Z,23.19
2022-12-18T06:10:22.914Z,23.26
2022-12-18T06:12:49.206Z,23.19
2022-12-18T06:15:15.617Z,23.35
2022-12-18T06:17:43.545Z,23.26
2022-12-18T06:20:10.765Z,23.39
2022-12-18T06:22:37.088Z,23.31
2022-12-18T06:25:05.382Z,23.27
2022-12-18T06:27:31.750Z,23.51
2022-12-18T06:29:58.076Z,23.46
2022-12-18T06:32:24.392Z,23.50
2022-12-18T06:34:50.685Z,23.27
2022-12-18T06:37:17.104Z,23.49
2022-12-18T06:39:43.379Z,23.52
2022-12-18T06:42:11.016Z,23.46
2022-12-18T06:44:37.348Z,23.47
2022-12-18T06:47:03.698Z,23.60
2022-12-18T06:49:30.722Z,23.51
2022-12-18T06:51:57.187Z,23.62
2022-12-18T06:54:23.435Z,23.64
2022-12-18T06:56:50.400Z,23.58
2022-12-18T06:59:18.703Z,23.76
2022-12-18T07:04:34.384Z,23.70
2022-12-18T07:07:00.716Z,23.70
2022-12-18T07:09:29.029Z,23.74
2022-12-18T07:11:55.364Z,23.80
2022-12-18T07:14:23.960Z,23.79
2022-12-18T07:16:50.273Z,23.89
2022-12-18T07:19:16.604Z,23.97
2022-12-18T07:21:43.061Z,23.94
2022-12-18T07:24:09.358Z,23.99
2022-12-18T07:26:35.705Z,23.92
2022-12-18T07:29:02.079Z,23.98
2022-12-18T07:31:29.813Z,24.03
2022-12-18T07:33:56.180Z,23.98
2022-12-18T07:36:22.497Z,24.11
2022-12-18T07:38:49.043Z,24.04
2022-12-18T07:41:15.511Z,24.17
2022-12-18T07:43:42.672Z,24.12
2022-12-18T07:46:09.883Z,24.27
2022-12-18T07:48:37.702Z,24.14
2022-12-18T07:51:05.631Z,24.32
2022-12-18T07:53:32.863Z,24.27
2022-12-18T07:56:26.074Z,24.38
2022-12-18T07:58:45.996Z,24.39
2022-12-18T08:01:14.858Z,24.21
2022-12-18T08:03:43.036Z,24.50
2022-12-18T08:06:10.532Z,24.42
2022-12-18T08:08:36.950Z,24.58
2022-12-18T08:11:03.293Z,24.47
2022-12-18T08:13:29.715Z,24.52
2022-12-18T08:15:56.659Z,24.63
2022-12-18T08:18:23.015Z,24.58
2022-12-18T08:20:50.594Z,24.60
2022-12-18T08:23:16.947Z,24.67
2022-12-18T08:25:43.241Z,24.70
2022-12-18T08:28:09.586Z,24.62
2022-12-18T08:30:36.369Z,24.69
2022-12-18T08:33:02.872Z,24.84
2022-12-18T08:35:34.090Z,24.85
2022-12-18T08:38:04.113Z,24.87
2022-12-18T08:40:30.521Z,24.83
2022-12-18T08:42:56.824Z,24.91
2022-12-18T08:45:23.304Z,24.91
2022-12-18T08:47:49.629Z,25.00
2022-12-18T08:50:15.952Z,24.96
2022-12-18T08:52:42.289Z,25.01
2022-12-18T08:55:10.384Z,25.16
2022-12-18T08:57:36.728Z,25.07
2022-12-18T09:00:03.939Z,25.19
2022-12-18T09:02:30.445Z,25.18
2022-12-18T09:04:57.804Z,25.16
2022-12-18T09:07:24.254Z,25.14
2022-12-18T09:09:50.539Z,25.18
2022-12-18T09:12:18.114Z,25.20
2022-12-18T09:14:44.574Z,25.27
2022-12-18T09:17:11.056Z,25.25
2022-12-18T09:19:37.398Z,25.28
2022-12-18T09:22:03.696Z,25.28
2022-12-18T09:24:29.971Z,25.26
2022-12-18T09:26:58.047Z,25.41
2022-12-18T09:29:25.840Z,25.45
2022-12-18T09:31:52.155Z,25.36
2022-12-18T09:34:18.513Z,25.47
2022-12-18T09:36:44.935Z,25.54
2022-12-18T09:39:11.306Z,25.41
2022-12-18T09:41:41.791Z,25.53
2022-12-18T09:44:13.312Z,25.53
2022-12-18T09:46:44.754Z,25.63
2022-12-18T09:49:13.680Z,25.67
2022-12-18T09:51:42.587Z,25.74
2022-12-18T09:54:13.348Z,25.68
2022-12-18T09:56:41.212Z,25.76
2022-12-18T09:59:15.163Z,25.71
2022-12-18T10:01:44.563Z,25.74
2022-12-18T10:04:12.169Z,25.80
2022-12-18T10:06:43.604Z,25.87
2022-12-18T10:09:16.278Z,25.87
2022-12-18T10:11:48.692Z,25.91
2022-12-18T10:14:18.368Z,26.01
2022-12-18T10:16:54.080Z,25.95
2022-12-18T10:19:29.424Z,26.14
2022-12-18T10:22:01.747Z,25.97
2022-12-18T10:24:32.181Z,26.09
2022-12-18T10:27:04.048Z,25.99
2022-12-18T10:29:30.508Z,26.14
2022-12-18T10:35:00.816Z,26.11
2022-12-18T10:37:28.845Z,26.25
2022-12-18T10:40:05.036Z,26.35
2022-12-18T10:42:31.433Z,26.25
2022-12-18T10:45:02.470Z,26.43
2022-12-18T10:47:28.804Z,26.31
2022-12-18T10:49:55.221Z,26.55
2022-12-18T10:52:30.801Z,26.56
2022-12-18T10:54:59.317Z,26.51
2022-12-18T10:57:34.569Z,26.66
2022-12-18T11:00:14.193Z,26.64
2022-12-18T11:02:40.634Z,26.58
2022-12-18T11:05:23.896Z,26.64
2022-12-18T11:07:51.686Z,26.78
2022-12-18T11:10:18.924Z,26.74
2022-12-18T11:12:45.653Z,26.78
2022-12-18T11:15:15.729Z,26.75
2022-12-18T11:17:42.485Z,26.85
2022-12-18T11:20:21.721Z,26.89
2022-12-18T11:22:56.996Z,26.97
2022-12-18T11:25:33.032Z,27.05
2022-12-18T11:28:01.369Z,27.04
2022-12-18T11:30:29.405Z,27.02
2022-12-18T11:33:00.046Z,27.10
2022-12-18T11:35:33.076Z,27.12
2022-12-18T11:38:05.556Z,27.12
2022-12-18T11:40:44.479Z,27.20
2022-12-18T11:43:13.295Z,27.13
2022-12-18T11:45:41.709Z,27.18
2022-12-18T11:48:13.670Z,27.20
2022-12-18T11:50:45.632Z,27.25
2022-12-18T11:53:13.710Z,27.28
2022-12-18T11:55:42.699Z,27.50
2022-12-18T11:58:12.947Z,27.35
2022-12-18T12:00:45.877Z,27.34
2022-12-18T12:03:19.406Z,27.49
2022-12-18T12:05:52.249Z,27.47
2022-12-18T12:08:27.212Z,27.41
2022-12-18T12:13:48.948Z,27.58
2022-12-18T12:16:18.001Z,27.61
2022-12-18T12:18:54.249Z,27.52
2022-12-18T12:21:25.745Z,27.69
2022-12-18T12:23:57.557Z,27.70
2022-12-18T12:26:28.306Z,27.78
2022-12-18T12:29:01.800Z,27.78
2022-12-18T12:31:35.122Z,27.87
2022-12-18T12:34:05.761Z,27.98
2022-12-18T12:36:39.204Z,27.94
2022-12-18T12:39:10.714Z,27.94
2022-12-18T12:44:17.920Z,28.12
2022-12-18T12:46:44.641Z,28.10
2022-12-18T12:49:13.874Z,28.02
2022-12-18T12:51:42.478Z,28.00
2022-12-18T12:54:15.201Z,28.21
2022-12-18T12:56:49.011Z,28.20
2022-12-18T12:59:20.077Z,28.25
2022-12-18T13:01:53.311Z,28.22
2022-12-18T13:04:23.866Z,28.29
2022-12-18T13:06:55.231Z,28.36
2022-12-18T13:09:23.060Z,28.43
2022-12-18T13:11:51.615Z,28.42
2022-12-18T13:14:24.102Z,28.47
2022-12-18T13:16:51.865Z,28.46
2022-12-18T13:19:22.912Z,28.51
2022-12-18T13:21:54.455Z,28.69
2022-12-18T13:24:24.665Z,28.55
2022-12-18T13:26:51.145Z,28.60
2022-12-18T13:29:41.760Z,28.83
2022-12-18T13:32:37.011Z,28.78
2022-12-18T13:35:35.480Z,28.85
2022-12-18T13:38:02.333Z,28.84
2022-12-18T13:40:38.556Z,29.02
2022-12-18T13:43:16.631Z,28.94
2022-12-18T13:45:47.485Z,29.03
2022-12-18T13:48:19.040Z,29.13
2022-12-18T13:50:58.032Z,29.08
2022-12-18T13:53:27.162Z,29.08
2022-12-18T13:55:53.945Z,29.22
2022-12-18T13:58:21.526Z,29.28
2022-12-18T14:00:49.037Z,29.22
2022-12-18T14:03:25.761Z,29.29
2022-12-18T14:05:54.690Z,29.47
2022-12-18T14:08:21.434Z,29.34
2022-12-18T14:10:50.225Z,29.58
2022-12-18T14:13:19.664Z,29.38
2022-12-18T14:15:49.792Z,29.41
2022-12-18T14:18:20.773Z,29.52
2022-12-18T14:23:29.856Z,29.46
2022-12-18T14:25:59.606Z,29.77
2022-12-18T14:28:28.944Z,29.78
2022-12-18T14:30:56.627Z,29.84
2022-12-18T14:33:24.356Z,29.77
2022-12-18T14:35:55.534Z,29.97
2022-12-18T14:38:23.839Z,30.06
2022-12-18T14:40:53.428Z,29.99
2022-12-18T14:43:19.857Z,29.98
2022-12-18T14:45:46.409Z,30.04
2022-12-18T14:48:22.957Z,30.03
2022-12-18T14:50:58.879Z,30.12
2022-12-18T14:53:32.221Z,30.25
2022-12-18T14:55:58.655Z,30.18
2022-12-18T14:58:25.443Z,30.23
2022-12-18T15:00:53.547Z,30.27
2022-12-18T15:03:22.258Z,30.26
2022-12-18T15:05:49.579Z,30.50
2022-12-18T15:08:28.537Z,30.42
2022-12-18T15:10:54.850Z,30.35
2022-12-18T15:13:22.710Z,30.53
2022-12-18T15:15:49.236Z,30.45
2022-12-18T15:18:17.353Z,30.60
2022-12-18T15:20:45.790Z,30.48
2022-12-18T15:23:15.101Z,30.66
2022-12-18T15:25:41.539Z,30.48
2022-12-18T15:28:17.118Z,30.73
2022-12-18T15:30:58.675Z,30.70
2022-12-18T15:33:26.281Z,30.59
2022-12-18T15:35:58.225Z,30.69
2022-12-18T15:38:24.583Z,30.64
2022-12-18T15:40:50.928Z,30.82
2022-12-18T15:43:23.472Z,30.81
2022-12-18T15:45:49.823Z,30.95
2022-12-18T15:48:20.294Z,31.01
2022-12-18T15:50:46.910Z,30.97
2022-12-18T15:53:14.625Z,30.87
2022-12-18T15:55:40.883Z,31.12
2022-12-18T15:58:09.224Z,30.98
2022-12-18T16:00:36.273Z,30.96
2022-12-18T16:03:02.898Z,31.11
2022-12-18T16:05:29.445Z,31.18
2022-12-18T16:07:55.743Z,31.09
2022-12-18T16:10:23.831Z,31.06
2022-12-18T16:12:50.386Z,31.22
2022-12-18T16:15:22.437Z,31.35
2022-12-18T16:17:50.573Z,31.36
2022-12-18T16:20:17.703Z,31.37
2022-12-18T16:22:44.917Z,31.38
2022-12-18T16:25:16.622Z,31.41
2022-12-18T16:27:44.270Z,31.50
2022-12-18T16:30:13.585Z,31.34
2022-12-18T16:32:39.876Z,31.47
2022-12-18T16:35:06.498Z,31.54
2022-12-18T16:37:32.822Z,31.66
2022-12-18T16:39:59.207Z,31.61
2022-12-18T16:42:25.530Z,31.66
2022-12-18T16:44:53.212Z,31.64
2022-12-18T16:47:19.575Z,31.68
2022-12-18T16:49:46.376Z,31.79
2022-12-18T16:52:12.856Z,31.72
2022-12-18T16:54:39.249Z,31.79
2022-12-18T16:57:05.645Z,31.80
2022-12-18T16:59:32.006Z,31.82
2022-12-18T17:01:59.946Z,31.67
2022-12-18T17:04:29.162Z,31.78
2022-12-18T17:06:55.488Z,31.77
2022-12-18T17:09:22.435Z,31.95
2022-12-18T17:11:48.718Z,31.99
2022-12-18T17:14:15.654Z,32.04
2022-12-18T17:16:42.365Z,31.97
2022-12-18T17:19:15.331Z,31.89
2022-12-18T17:21:43.747Z,32.16
2022-12-18T17:24:10.093Z,31.91
2022-12-18T17:26:36.729Z,32.15
2022-12-18T17:29:03.141Z,32.27
2022-12-18T17:33:57.524Z,32.14
2022-12-18T17:36:25.403Z,32.30
2022-12-18T17:38:52.018Z,32.24
2022-12-18T17:41:18.334Z,32.29
2022-12-18T17:43:44.668Z,32.37
2022-12-18T17:46:12.151Z,32.59
2022-12-18T17:48:38.555Z,32.41
2022-12-18T17:53:54.340Z,32.44
2022-12-18T17:56:21.562Z,32.41
2022-12-18T17:58:48.588Z,32.31
2022-12-18T18:01:19.306Z,32.19
2022-12-18T18:03:46.395Z,32.51
2022-12-18T18:06:15.586Z,32.57
2022-12-18T18:08:41.893Z,32.49
2022-12-18T18:11:12.616Z,32.56
2022-12-18T18:13:44.930Z,32.60
2022-12-18T18:16:13.187Z,32.77
2022-12-18T18:18:39.519Z,32.66
2022-12-18T18:21:06.243Z,32.77
2022-12-18T18:23:32.867Z,32.91
2022-12-18T18:26:02.114Z,32.78
2022-12-18T18:28:29.823Z,32.86
2022-12-18T18:30:56.279Z,32.91
2022-12-18T18:33:22.638Z,33.04
2022-12-18T18:35:56.036Z,32.91
2022-12-18T18:38:22.509Z,33.00
2022-12-18T18:40:48.810Z,33.21
2022-12-18T18:43:15.094Z,33.19
2022-12-18T18:45:42.716Z,33.20
2022-12-18T18:48:10.710Z,33.18
2022-12-18T18:50:37.055Z,33.11
2022-12-18T18:53:03.338Z,33.15
2022-12-18T18:55:29.598Z,33.29
2022-12-18T18:57:55.926Z,33.29
2022-12-18T19:00:22.216Z,33.37
2022-12-18T19:02:50.472Z,33.46
2022-12-18T19:05:16.947Z,33.37
2022-12-18T19:07:43.288Z,33.39
2022-12-18T19:10:09.935Z,33.59
2022-12-18T19:12:36.251Z,33.66
2022-12-18T19:15:05.823Z,33.52
2022-12-18T19:17:32.282Z,33.82
2022-12-18T19:20:00.736Z,33.69
2022-12-18T19:22:27.098Z,33.73
2022-12-18T19:24:53.397Z,33.80
2022-12-18T19:27:19.766Z,33.79
2022-12-18T19:29:46.054Z,33.94
2022-12-18T19:32:12.405Z,34.00
2022-12-18T19:34:39.649Z,34.09
2022-12-18T19:37:07.291Z,33.92
2022-12-18T19:39:33.550Z,33.97
2022-12-18T19:42:00.002Z,34.00
2022-12-18T19:44:26.283Z,34.17
2022-12-18T19:46:52.575Z,34.22
2022-12-18T19:49:18.992Z,34.36
2022-12-18T19:51:45.643Z,34.12
2022-12-18T19:54:17.178Z,34.13
2022-12-18T19:56:44.075Z,34.30
2022-12-18T19:59:10.355Z,34.30
2022-12-18T20:01:36.831Z,34.28
2022-12-18T20:04:06.153Z,34.42
2022-12-18T20:06:33.852Z,34.30
2022-12-18T20:09:01.585Z,34.28
2022-12-18T20:11:29.752Z,34.54
2022-12-18T20:13:56.263Z,34.45
2022-12-18T20:16:22.707Z,34.61
2022-12-18T20:18:49.068Z,34.44
2022-12-18T20:21:15.787Z,34.52
2022-12-18T20:23:42.606Z,34.68
2022-12-18T20:26:09.719Z,34.56
2022-12-18T20:28:37.823Z,34.82
2022-12-18T20:31:07.120Z,34.79
2022-12-18T20:33:34.316Z,34.85
2022-12-18T20:36:01.168Z,34.64
2022-12-18T20:38:28.599Z,34.85
2022-12-18T20:40:55.414Z,35.02
2022-12-18T20:43:21.696Z,35.03
2022-12-18T20:45:49.427Z,35.05
2022-12-18T20:48:15.794Z,34.98
2022-12-18T20:50:43.170Z,34.95
2022-12-18T20:53:09.542Z,35.17
2022-12-18T20:55:40.528Z,35.13
2022-12-18T20:58:06.844Z,35.09
2022-12-18T21:00:33.138Z,35.13
2022-12-18T21:03:00.911Z,35.17
2022-12-18T21:05:29.043Z,35.17
2022-12-18T21:07:55.376Z,35.41
2022-12-18T21:10:21.803Z,35.30
2022-12-18T21:13:03.160Z,35.57
2022-12-18T21:15:32.361Z,35.26
2022-12-18T21:17:58.779Z,35.58
2022-12-18T21:20:26.368Z,35.44
2022-12-18T21:22:52.807Z,35.57
2022-12-18T21:25:21.882Z,35.53
2022-12-18T21:27:48.202Z,35.67
2022-12-18T21:30:14.593Z,35.78
2022-12-18T21:32:40.890Z,35.77
2022-12-18T21:35:07.436Z,35.64
2022-12-18T21:37:35.086Z,35.73
2022-12-18T21:40:01.388Z,35.90
2022-12-18T21:42:27.918Z,36.03
2022-12-18T21:44:54.389Z,36.08
2022-12-18T21:47:22.814Z,35.81
2022-12-18T21:49:50.251Z,36.00
2022-12-18T21:52:16.552Z,35.99
2022-12-18T21:54:44.183Z,36.02
2022-12-18T21:57:10.928Z,35.94
2022-12-18T21:59:38.193Z,36.16
2022-12-18T22:02:07.201Z,36.21
2022-12-18T22:04:33.612Z,36.22
2022-12-18T22:06:59.942Z,36.20
2022-12-18T22:09:26.380Z,36.22
2022-12-18T22:11:54.042Z,36.32
2022-12-18T22:14:21.190Z,36.32
2022-12-18T22:16:47.790Z,36.35
2022-12-18T22:19:14.987Z,36.27
2022-12-18T22:21:42.624Z,36.08
2022-12-18T22:24:13.218Z,36.02
2022-12-18T22:26:40.474Z,36.28
2022-12-18T22:29:12.885Z,36.32
2022-12-18T22:31:39.715Z,36.25
2022-12-18T22:34:06.288Z,36.34
2022-12-18T22:36:36.687Z,36.30
2022-12-18T22:39:03.527Z,36.21
2022-12-18T22:41:29.858Z,36.20
2022-12-18T22:43:58.136Z,36.12
2022-12-18T22:46:26.110Z,36.37
2022-12-18T22:48:52.592Z,36.35
2022-12-18T22:51:19.524Z,36.34
2022-12-18T22:53:45.912Z,36.27
2022-12-18T22:56:21.205Z,36.19
2022-12-18T22:58:48.147Z,36.29
2022-12-18T23:01:18.327Z,36.16
2022-12-18T23:03:46.142Z,36.23
2022-12-18T23:06:12.629Z,36.27
2022-12-18T23:08:38.940Z,36.29
2022-12-18T23:11:05.532Z,36.26
2022-12-18T23:13:32.624Z,36.43
2022-12-18T23:15:59.049Z,36.36
2022-12-18T23:18:25.515Z,36.42
2022-12-18T23:20:53.044Z,36.27
2022-12-18T23:23:19.486Z,36.29
2022-12-18T23:25:45.907Z,36.30
2022-12-18T23:28:13.328Z,36.41
2022-12-18T23:30:39.574Z,36.51
2022-12-18T23:33:05.870Z,36.27
2022-12-18T23:35:32.379Z,36.17
2022-12-18T23:38:00.476Z,36.39
2022-12-18T23:40:27.548Z,36.30
2022-12-18T23:42:53.872Z,36.37
2022-12-18T23:45:20.163Z,36.30
2022-12-18T23:47:48.249Z,36.27
2022-12-18T23:50:17.616Z,36.41
2022-12-18T23:52:43.902Z,36.32
2022-12-18T23:55:11.570Z,36.38
2022-12-18T23:57:37.985Z,36.51
